Time;durP1;ratioP1;P1;durP2;ratioP2;P2;SDS_P1;SDS_P2;PMS_P1;PMS_P2;Temp;Humidity;BMP_temperature;BMP_pressure;BME280_temperature;BME280_humidity;BME280_pressure;Samples;Min_cycle;Max_cycle;Signal;HPM_P1;HPM_P2
2022/07/25 00:00:28;;;;;;;7.45;5.55;;;23.50;99.90;;;;;;5136042;27;20164;-48
2022/07/25 00:02:54;;;;;;;7.43;6.72;;;23.50;99.90;;;;;;5135637;27;20528;-48
2022/07/25 00:05:20;;;;;;;11.55;6.10;;;23.50;99.90;;;;;;5135643;27;20160;-45
2022/07/25 00:07:45;;;;;;;8.05;6.55;;;23.50;99.90;;;;;;5135450;27;20172;-46
2022/07/25 00:10:11;;;;;;;8.45;6.60;;;23.50;99.90;;;;;;5135285;27;20218;-50
2022/07/25 00:12:37;;;;;;;6.78;6.10;;;23.50;99.90;;;;;;5135344;27;20288;-50
2022/07/25 00:15:04;;;;;;;8.13;5.45;;;23.50;99.90;;;;;;5135344;27;20160;-45
2022/07/25 00:17:29;;;;;;;9.20;5.97;;;23.50;99.90;;;;;;5135830;27;20259;-46
2022/07/25 00:19:55;;;;;;;6.68;5.60;;;23.60;99.90;;;;;;5135360;27;20635;-47
2022/07/25 00:22:20;;;;;;;7.18;6.32;;;23.60;99.90;;;;;;5135567;27;20254;-48
2022/07/25 00:24:46;;;;;;;9.60;5.85;;;23.50;99.90;;;;;;5135148;27;20525;-48
2022/07/25 00:27:12;;;;;;;7.72;6.50;;;23.50;99.90;;;;;;5135158;27;20224;-45
2022/07/25 00:29:37;;;;;;;6.55;5.95;;;23.50;99.90;;;;;;5135169;27;20164;-45
2022/07/25 00:32:04;;;;;;;6.47;5.88;;;23.50;99.90;;;;;;5135159;27;20604;-46
2022/07/25 00:34:29;;;;;;;9.10;6.25;;;23.50;99.90;;;;;;5116923;27;20207;-46
2022/07/25 00:36:55;;;;;;;7.18;6.25;;;23.40;99.90;;;;;;5134798;27;20195;-45
2022/07/25 00:39:20;;;;;;;11.77;6.78;;;23.50;99.90;;;;;;5134487;27;20168;-53
2022/07/25 00:41:46;;;;;;;8.55;5.88;;;23.30;99.90;;;;;;5135159;27;20255;-48
2022/07/25 00:44:26;;;;;;;11.40;6.47;;;23.20;99.90;;;;;;5134858;27;20226;-52
2022/07/25 00:46:52;;;;;;;12.13;6.80;;;23.10;99.90;;;;;;5134762;27;20160;-52
2022/07/25 00:49:18;;;;;;;10.73;6.55;;;23.00;99.90;;;;;;5134742;27;20265;-51
2022/07/25 00:51:44;;;;;;;15.68;7.28;;;23.00;99.90;;;;;;5134583;27;20631;-49
2022/07/25 00:54:11;;;;;;;10.07;6.80;;;22.80;99.90;;;;;;5134786;27;20271;-47
2022/07/25 00:56:37;;;;;;;9.77;6.30;;;22.80;99.90;;;;;;5134579;27;20164;-48
2022/07/25 00:59:03;;;;;;;8.95;6.57;;;22.80;99.90;;;;;;5134622;27;20200;-50
2022/07/25 01:01:29;;;;;;;8.23;6.53;;;22.80;99.90;;;;;;5135178;27;20203;-50
2022/07/25 01:03:54;;;;;;;8.20;6.25;;;22.90;99.90;;;;;;5134388;27;20159;-51
2022/07/25 01:06:21;;;;;;;8.23;6.32;;;22.90;99.90;;;;;;5134395;27;20544;-51
2022/07/25 01:08:47;;;;;;;9.70;6.50;;;22.80;99.90;;;;;;5134285;27;20163;-48
2022/07/25 01:11:12;;;;;;;7.20;6.45;;;22.80;99.90;;;;;;5134183;27;20215;-48
2022/07/25 01:13:38;;;;;;;6.88;6.28;;;22.80;99.90;;;;;;5134144;27;20202;-54
2022/07/25 01:16:04;;;;;;;8.18;6.10;;;22.90;99.90;;;;;;5134220;27;20164;-44
2022/07/25 01:18:30;;;;;;;8.02;6.25;;;22.90;99.90;;;;;;5134507;27;20352;-44
2022/07/25 01:20:55;;;;;;;7.32;6.05;;;22.90;99.90;;;;;;5134451;27;20251;-44
2022/07/25 01:23:21;;;;;;;6.70;6.10;;;22.90;99.90;;;;;;5133949;27;20167;-45
2022/07/25 01:25:46;;;;;;;6.13;5.53;;;22.90;99.90;;;;;;5133938;27;20165;-45
2022/07/25 01:28:12;;;;;;;9.35;6.00;;;23.00;99.90;;;;;;5115472;27;20316;-45
2022/07/25 01:30:38;;;;;;;7.50;6.20;;;23.00;99.90;;;;;;5134487;27;20164;-50
2022/07/25 01:33:03;;;;;;;6.53;5.70;;;22.90;99.90;;;;;;5133703;27;20195;-52
2022/07/25 01:35:29;;;;;;;6.60;5.90;;;22.90;99.90;;;;;;5134117;27;20168;-54
2022/07/25 01:37:54;;;;;;;7.38;6.25;;;22.90;99.90;;;;;;5133870;27;20235;-51
2022/07/25 01:40:21;;;;;;;6.80;6.10;;;22.80;99.90;;;;;;5133481;27;20175;-54
2022/07/25 01:42:47;;;;;;;7.72;6.35;;;22.80;99.90;;;;;;5133709;27;20167;-45
2022/07/25 01:45:12;;;;;;;6.88;5.65;;;22.70;99.90;;;;;;5133650;27;20255;-45
2022/07/25 01:47:38;;;;;;;7.00;5.82;;;22.70;99.90;;;;;;5133869;27;20175;-46
2022/07/25 01:50:05;;;;;;;9.70;6.60;;;22.70;99.90;;;;;;5132647;27;20793;-45
2022/07/25 01:52:31;;;;;;;6.70;5.82;;;22.70;99.90;;;;;;5133451;27;20215;-45
2022/07/25 01:54:57;;;;;;;8.73;6.57;;;22.70;99.90;;;;;;5133760;27;20626;-44
2022/07/25 01:57:22;;;;;;;5.63;5.13;;;22.80;99.90;;;;;;5133418;27;20164;-45
2022/07/25 01:59:48;;;;;;;6.60;5.70;;;22.80;99.90;;;;;;5133398;27;20242;-44
2022/07/25 02:02:14;;;;;;;6.88;6.03;;;22.80;99.90;;;;;;5133314;27;20217;-44
2022/07/25 02:04:39;;;;;;;6.60;6.00;;;22.80;99.90;;;;;;5133326;27;20654;-44
2022/07/25 02:07:05;;;;;;;7.97;5.47;;;22.80;99.90;;;;;;5133264;27;20568;-44
2022/07/25 02:09:30;;;;;;;6.75;6.05;;;22.70;99.90;;;;;;5133182;27;20171;-44
2022/07/25 02:11:56;;;;;;;6.85;6.10;;;22.70;99.90;;;;;;5114488;27;20664;-44
2022/07/25 02:14:22;;;;;;;9.98;6.18;;;22.70;99.90;;;;;;5133362;27;20164;-44
2022/07/25 02:16:48;;;;;;;11.18;6.30;;;22.70;99.90;;;;;;5133082;27;20168;-44
2022/07/25 02:19:13;;;;;;;6.35;5.75;;;22.70;99.90;;;;;;5133066;27;20164;-44
2022/07/25 02:21:39;;;;;;;8.52;6.32;;;22.60;99.90;;;;;;5133024;27;20519;-44
2022/07/25 02:24:06;;;;;;;7.65;6.40;;;22.50;99.90;;;;;;5133272;27;20214;-44
2022/07/25 02:26:32;;;;;;;7.47;6.05;;;22.50;99.90;;;;;;5133256;27;20171;-44
2022/07/25 02:28:57;;;;;;;7.10;6.35;;;22.50;99.90;;;;;;5133289;27;20175;-44
2022/07/25 02:31:23;;;;;;;9.23;6.43;;;22.60;99.90;;;;;;5133193;27;20172;-44
2022/07/25 02:33:49;;;;;;;8.18;6.13;;;22.60;99.90;;;;;;5132829;27;20328;-44
2022/07/25 02:36:15;;;;;;;6.88;6.28;;;22.50;99.90;;;;;;5132881;27;20243;-45
2022/07/25 02:38:40;;;;;;;7.07;6.20;;;22.50;99.90;;;;;;5132936;27;20519;-44
2022/07/25 02:41:06;;;;;;;7.95;5.88;;;22.40;99.90;;;;;;5132878;27;20213;-44
2022/07/25 02:43:32;;;;;;;6.55;5.90;;;22.40;99.90;;;;;;5132857;27;20237;-44
2022/07/25 02:45:58;;;;;;;7.30;6.10;;;22.40;99.90;;;;;;5133158;28;20168;-44
2022/07/25 02:48:24;;;;;;;8.18;5.85;;;22.40;99.90;;;;;;5132801;27;20195;-45
2022/07/25 02:50:49;;;;;;;10.38;6.10;;;22.40;99.90;;;;;;5132716;27;20576;-44
2022/07/25 02:53:15;;;;;;;6.90;6.03;;;22.40;99.90;;;;;;5132622;27;20242;-44
2022/07/25 02:55:40;;;;;;;8.70;5.93;;;22.30;99.90;;;;;;5132678;27;20164;-44
2022/07/25 02:58:06;;;;;;;8.82;5.80;;;22.20;99.90;;;;;;5132809;27;20172;-49
2022/07/25 03:00:32;;;;;;;6.85;6.18;;;22.20;99.90;;;;;;5133184;27;20639;-51
2022/07/25 03:02:57;;;;;;;7.07;6.18;;;22.20;99.90;;;;;;5137104;27;20178;-48
2022/07/25 03:05:23;;;;;;;8.65;5.85;;;22.20;99.90;;;;;;5136747;27;20190;-51
2022/07/25 03:07:49;;;;;;;6.78;6.00;;;22.10;99.90;;;;;;5136597;27;20175;-45
2022/07/25 03:10:15;;;;;;;7.15;6.05;;;22.00;99.90;;;;;;5136483;27;20219;-54
2022/07/25 03:12:41;;;;;;;7.40;5.63;;;22.00;99.90;;;;;;5136557;27;20588;-55
2022/07/25 03:15:10;;;;;;;6.85;5.53;;;22.00;99.90;;;;;;5136564;27;20612;-54
2022/07/25 03:17:36;;;;;;;7.30;5.65;;;22.10;99.90;;;;;;5136495;27;20160;-55
2022/07/25 03:20:04;;;;;;;7.78;6.07;;;22.10;99.90;;;;;;5136442;27;20672;-55
2022/07/25 03:22:29;;;;;;;7.47;6.32;;;22.10;99.90;;;;;;5136781;27;20175;-45
2022/07/25 03:24:55;;;;;;;9.75;6.20;;;22.00;99.90;;;;;;5136632;27;20167;-54
2022/07/25 03:27:20;;;;;;;8.38;6.25;;;22.00;99.90;;;;;;5136530;27;20172;-53
2022/07/25 03:29:46;;;;;;;6.18;5.57;;;22.00;99.90;;;;;;5136028;27;20630;-55
2022/07/25 03:32:11;;;;;;;8.05;6.13;;;21.90;99.90;;;;;;5135942;27;20203;-55
2022/07/25 03:34:37;;;;;;;7.50;6.30;;;21.80;99.90;;;;;;5135905;27;20171;-55
2022/07/25 03:37:04;;;;;;;7.15;5.95;;;21.80;99.90;;;;;;5136182;27;20255;-55
2022/07/25 03:39:30;;;;;;;8.82;6.18;;;21.80;99.90;;;;;;5135437;27;20266;-54
2022/07/25 03:41:55;;;;;;;7.78;6.60;;;21.70;99.90;;;;;;5136441;27;20668;-56
2022/07/25 03:44:23;;;;;;;8.98;6.30;;;21.70;99.90;;;;;;5136198;27;20630;-48
2022/07/25 03:46:48;;;;;;;6.80;6.10;;;21.60;99.90;;;;;;5136053;27;20167;-47
2022/07/25 03:49:14;;;;;;;9.60;6.80;;;21.70;99.90;;;;;;5135976;27;20187;-45
2022/07/25 03:51:40;;;;;;;8.00;6.60;;;21.60;99.90;;;;;;5135995;27;20180;-45
2022/07/25 03:54:07;;;;;;;9.63;6.60;;;21.50;99.90;;;;;;5135814;27;20221;-44
2022/07/25 03:56:38;;;;;;;8.10;7.05;;;21.50;99.90;;;;;;5136088;27;20170;-45
2022/07/25 03:59:05;;;;;;;8.07;6.05;;;21.40;99.90;;;;;;5135655;27;20167;-45
2022/07/25 04:01:31;;;;;;;7.78;6.30;;;21.50;99.90;;;;;;5135495;27;20183;-44
2022/07/25 04:03:58;;;;;;;7.28;5.85;;;21.60;99.90;;;;;;5135953;27;20164;-44
2022/07/25 04:06:23;;;;;;;8.98;6.43;;;21.60;99.90;;;;;;5135794;27;20164;-44
2022/07/25 04:08:49;;;;;;;7.03;6.43;;;21.70;99.90;;;;;;5135560;27;20160;-44
2022/07/25 04:11:15;;;;;;;7.00;6.22;;;21.70;99.90;;;;;;5135409;27;20212;-45
2022/07/25 04:13:41;;;;;;;6.95;6.13;;;21.80;99.90;;;;;;5134399;27;20200;-44
2022/07/25 04:16:07;;;;;;;6.80;6.20;;;21.80;99.90;;;;;;5135565;27;20168;-45
2022/07/25 04:18:33;;;;;;;8.57;6.57;;;21.90;99.90;;;;;;5135572;27;20534;-45
2022/07/25 04:20:58;;;;;;;6.78;6.07;;;21.80;99.90;;;;;;5135541;27;20160;-44
2022/07/25 04:23:24;;;;;;;10.00;7.15;;;21.80;99.90;;;;;;5135451;27;20209;-44
2022/07/25 04:25:49;;;;;;;8.57;6.25;;;21.80;99.90;;;;;;5135243;27;20160;-44
2022/07/25 04:28:15;;;;;;;8.38;6.30;;;21.90;99.90;;;;;;5135208;27;20161;-45
2022/07/25 04:30:44;;;;;;;10.85;7.18;;;22.00;99.90;;;;;;5135122;27;20168;-44
2022/07/25 04:33:10;;;;;;;7.88;6.95;;;22.10;99.90;;;;;;5135175;27;20215;-46
2022/07/25 04:35:35;;;;;;;7.55;6.78;;;22.20;99.90;;;;;;5135026;27;20164;-44
2022/07/25 04:38:01;;;;;;;10.43;6.30;;;22.20;99.90;;;;;;5134932;27;20532;-44
2022/07/25 04:40:27;;;;;;;9.05;6.60;;;22.30;99.90;;;;;;5135270;27;20172;-44
2022/07/25 04:42:52;;;;;;;7.82;6.68;;;22.30;99.90;;;;;;5134831;27;20653;-44
2022/07/25 04:45:18;;;;;;;6.60;5.65;;;22.40;99.90;;;;;;5134679;27;20168;-44
2022/07/25 04:47:43;;;;;;;9.50;6.68;;;22.50;99.90;;;;;;5134725;27;20160;-44
2022/07/25 04:50:09;;;;;;;7.38;6.43;;;22.60;99.90;;;;;;5134357;27;20160;-45
2022/07/25 04:52:35;;;;;;;7.45;6.03;;;22.70;99.90;;;;;;5134518;27;20203;-44
2022/07/25 04:55:01;;;;;;;8.60;6.18;;;22.80;99.90;;;;;;5134805;27;20601;-44
2022/07/25 04:57:26;;;;;;;8.25;6.45;;;22.90;99.90;;;;;;5135179;27;20164;-44
2022/07/25 04:59:52;;;;;;;6.63;6.03;;;23.00;99.90;;;;;;5134445;27;20166;-44
2022/07/25 05:02:17;;;;;;;7.50;6.18;;;23.10;99.90;;;;;;5134399;27;20304;-45
2022/07/25 05:04:43;;;;;;;9.15;6.22;;;23.20;99.90;;;;;;5134612;27;20176;-44
2022/07/25 05:07:08;;;;;;;8.38;5.93;;;23.20;99.90;;;;;;5134362;27;20585;-44
2022/07/25 05:09:34;;;;;;;5.95;5.35;;;23.20;99.90;;;;;;5134379;27;20172;-44
2022/07/25 05:12:00;;;;;;;7.43;6.07;;;23.80;99.90;;;;;;5133982;27;20424;-44
2022/07/25 05:14:25;;;;;;;6.47;5.88;;;23.30;99.90;;;;;;5134589;27;20165;-46
2022/07/25 05:16:51;;;;;;;12.68;6.28;;;23.40;99.90;;;;;;5134201;27;20217;-44
2022/07/25 05:19:16;;;;;;;6.30;5.75;;;23.40;99.90;;;;;;5134149;27;20178;-44
2022/07/25 05:21:42;;;;;;;8.00;6.05;;;23.40;99.90;;;;;;5134071;27;20702;-44
2022/07/25 05:24:08;;;;;;;7.75;6.28;;;23.50;99.90;;;;;;5133897;27;20631;-44
2022/07/25 05:26:33;;;;;;;8.73;6.90;;;23.50;99.90;;;;;;5133943;27;20168;-44
2022/07/25 05:28:59;;;;;;;7.05;5.07;;;23.60;99.90;;;;;;5134196;27;20250;-44
2022/07/25 05:31:24;;;;;;;12.48;6.82;;;23.60;99.90;;;;;;5134258;27;20243;-44
2022/07/25 05:33:50;;;;;;;6.75;6.07;;;23.60;99.90;;;;;;5115321;27;20636;-44
2022/07/25 05:36:17;;;;;;;10.60;6.47;;;23.70;99.90;;;;;;5133681;27;20160;-44
2022/07/25 05:38:42;;;;;;;8.25;5.70;;;23.70;99.90;;;;;;5133645;27;20206;-45
2022/07/25 05:41:08;;;;;;;8.05;5.82;;;23.60;99.90;;;;;;5133648;27;20518;-44
2022/07/25 05:43:34;;;;;;;6.75;6.07;;;23.70;99.90;;;;;;5133598;27;20169;-44
2022/07/25 05:46:01;;;;;;;11.65;6.20;;;23.80;99.90;;;;;;5133691;27;20515;-44
2022/07/25 05:48:27;;;;;;;10.38;5.95;;;23.90;99.90;;;;;;5134162;27;20190;-44
2022/07/25 05:50:52;;;;;;;8.32;5.95;;;24.00;99.90;;;;;;5133508;27;20627;-44
2022/07/25 05:53:18;;;;;;;6.40;5.80;;;24.10;99.90;;;;;;5133414;27;20203;-45
2022/07/25 05:55:44;;;;;;;8.80;5.65;;;24.30;99.90;;;;;;5133436;27;20207;-45
2022/07/25 05:58:09;;;;;;;7.43;5.90;;;24.40;99.90;;;;;;5133679;27;20167;-45
2022/07/25 06:00:35;;;;;;;7.65;6.32;;;24.30;99.90;;;;;;5133452;27;20178;-44
2022/07/25 06:03:01;;;;;;;11.55;5.80;;;24.50;99.90;;;;;;5133504;27;20577;-44
2022/07/25 06:05:27;;;;;;;11.52;5.75;;;24.60;99.90;;;;;;5133564;27;20198;-44
2022/07/25 06:07:52;;;;;;;6.65;5.97;;;24.70;99.90;;;;;;5133287;27;20232;-44
2022/07/25 06:10:18;;;;;;;8.55;6.03;;;24.80;99.90;;;;;;5133088;27;20208;-44
2022/07/25 06:12:44;;;;;;;6.88;5.75;;;24.80;99.90;;;;;;5133294;27;20592;-44
2022/07/25 06:15:10;;;;;;;8.60;6.15;;;24.90;99.90;;;;;;5133043;27;20167;-44
2022/07/25 06:17:35;;;;;;;7.35;5.45;;;25.00;99.90;;;;;;5133186;27;20168;-44
2022/07/25 06:20:01;;;;;;;8.10;6.18;;;25.00;99.90;;;;;;5132948;27;20289;-44
2022/07/25 06:22:28;;;;;;;6.47;5.05;;;25.20;99.90;;;;;;5133354;27;20164;-44
2022/07/25 06:24:54;;;;;;;5.82;5.20;;;25.20;99.90;;;;;;5133286;27;20195;-44
2022/07/25 06:27:19;;;;;;;6.85;5.43;;;25.20;99.90;;;;;;5133009;27;20232;-45
2022/07/25 06:29:45;;;;;;;6.40;5.25;;;25.50;99.90;;;;;;5132961;27;20170;-44
2022/07/25 06:32:10;;;;;;;6.00;5.40;;;25.70;99.90;;;;;;5132865;27;20225;-44
2022/07/25 06:34:36;;;;;;;6.28;5.35;;;25.70;99.90;;;;;;5132864;28;20168;-46
2022/07/25 06:37:03;;;;;;;6.90;5.60;;;25.80;99.90;;;;;;5132301;27;20649;-45
2022/07/25 06:39:28;;;;;;;6.13;5.50;;;25.90;99.90;;;;;;5132858;27;20168;-46
2022/07/25 06:41:54;;;;;;;8.27;6.10;;;25.90;99.90;;;;;;5133407;28;20170;-45
2022/07/25 06:44:20;;;;;;;6.55;5.70;;;25.90;99.90;;;;;;5132785;27;20190;-44
2022/07/25 06:46:45;;;;;;;7.00;5.80;;;26.10;99.90;;;;;;5132764;27;20499;-44
2022/07/25 06:49:11;;;;;;;5.78;5.28;;;26.20;99.90;;;;;;5132796;27;20529;-45
2022/07/25 06:51:37;;;;;;;6.57;5.57;;;26.20;99.90;;;;;;5132751;28;20527;-44
2022/07/25 06:54:02;;;;;;;7.13;5.40;;;26.20;99.90;;;;;;5132675;27;20340;-44
2022/07/25 06:56:30;;;;;;;12.82;6.13;;;26.40;99.90;;;;;;5133422;27;20168;-48
2022/07/25 06:58:57;;;;;;;6.90;5.85;;;26.50;99.90;;;;;;5133745;27;20171;-48
2022/07/25 07:01:22;;;;;;;6.57;5.90;;;26.60;99.90;;;;;;5114864;28;20171;-45
2022/07/25 07:03:48;;;;;;;8.50;5.30;;;26.60;99.90;;;;;;5132694;27;20160;-44
2022/07/25 07:06:14;;;;;;;9.70;5.90;;;26.50;99.90;;;;;;5132676;27;20522;-44
2022/07/25 07:08:39;;;;;;;9.27;5.72;;;26.70;99.90;;;;;;5132486;27;20238;-44
2022/07/25 07:11:06;;;;;;;8.07;5.68;;;26.70;99.90;;;;;;5132466;27;20288;-46
2022/07/25 07:13:32;;;;;;;9.50;6.45;;;26.80;99.90;;;;;;5132488;27;20201;-45
2022/07/25 07:15:57;;;;;;;7.63;5.90;;;26.90;99.90;;;;;;5133107;27;20167;-46
2022/07/25 07:18:23;;;;;;;6.05;5.38;;;27.10;99.90;;;;;;5132903;27;20166;-44
2022/07/25 07:20:49;;;;;;;7.30;5.63;;;27.20;99.90;;;;;;5132488;27;20155;-45
2022/07/25 07:23:14;;;;;;;7.45;6.10;;;27.20;99.90;;;;;;5132714;27;20220;-44
2022/07/25 07:25:40;;;;;;;6.72;5.95;;;27.20;99.90;;;;;;5132429;27;20170;-44
2022/07/25 07:28:06;;;;;;;7.32;5.38;;;27.30;99.90;;;;;;5132423;27;20171;-44
2022/07/25 07:30:32;;;;;;;7.57;5.97;;;27.50;99.90;;;;;;5132496;27;20187;-44
2022/07/25 07:32:58;;;;;;;9.82;6.70;;;27.70;99.90;;;;;;5132726;27;20211;-44
2022/07/25 07:35:24;;;;;;;6.53;5.90;;;27.80;99.90;;;;;;5132688;27;20167;-44
2022/07/25 07:37:51;;;;;;;8.43;5.70;;;28.00;99.90;;;;;;5132520;27;20537;-44
2022/07/25 07:40:16;;;;;;;10.05;5.80;;;28.00;99.90;;;;;;5132540;28;20164;-44
2022/07/25 07:42:44;;;;;;;10.90;6.30;;;27.90;99.90;;;;;;5132318;27;20164;-45
2022/07/25 07:45:12;;;;;;;10.60;6.25;;;27.90;99.90;;;;;;5132484;27;20196;-44
2022/07/25 07:47:37;;;;;;;13.20;7.25;;;27.80;99.90;;;;;;5133061;27;20528;-44
2022/07/25 07:50:03;;;;;;;10.55;6.90;;;27.70;99.90;;;;;;5135909;27;20164;-44
2022/07/25 07:52:29;;;;;;;13.52;7.30;;;27.90;99.90;;;;;;5136064;27;20214;-49
2022/07/25 07:57:39;;;;;;;7.40;5.72;;;27.80;99.90;;;;;;5135968;27;20173;-48
2022/07/25 08:00:05;;;;;;;7.97;5.80;;;27.70;99.90;;;;;;5117558;27;20247;-48
2022/07/25 08:02:31;;;;;;;9.18;5.53;;;27.80;99.90;;;;;;5133519;27;20709;-46
2022/07/25 08:04:57;;;;;;;8.75;6.13;;;27.90;99.90;;;;;;5135691;27;20259;-49
2022/07/25 08:07:22;;;;;;;9.60;5.80;;;29.00;99.90;;;;;;5135186;27;20155;-46
2022/07/25 08:09:48;;;;;;;6.30;5.30;;;27.90;99.90;;;;;;5134825;27;20202;-47
2022/07/25 08:12:14;;;;;;;8.35;5.82;;;27.90;99.90;;;;;;5115845;27;20662;-48
2022/07/25 08:14:39;;;;;;;8.90;6.30;;;27.80;99.90;;;;;;5134392;27;20589;-50
2022/07/25 08:17:05;;;;;;;9.43;5.75;;;27.80;99.90;;;;;;5134394;27;20572;-50
2022/07/25 08:19:31;;;;;;;6.30;5.70;;;27.70;99.90;;;;;;5134507;27;20171;-48
2022/07/25 08:21:56;;;;;;;7.57;5.82;;;27.60;99.90;;;;;;5135359;27;20174;-47
2022/07/25 08:24:22;;;;;;;8.32;5.45;;;27.50;99.90;;;;;;5134030;27;20213;-45
2022/07/25 08:26:47;;;;;;;8.07;5.75;;;27.40;99.90;;;;;;5134534;27;20654;-46
2022/07/25 08:29:13;;;;;;;10.00;6.10;;;27.30;99.90;;;;;;5134436;27;20178;-49
2022/07/25 08:31:39;;;;;;;7.95;6.15;;;27.20;99.90;;;;;;5134586;27;20168;-50
2022/07/25 08:34:04;;;;;;;14.45;6.28;;;27.10;99.90;;;;;;5133671;27;20195;-47
2022/07/25 08:36:30;;;;;;;9.55;5.60;;;27.10;99.90;;;;;;5133933;27;20175;-46
2022/07/25 08:38:55;;;;;;;7.93;5.22;;;27.20;99.90;;;;;;5134184;27;20172;-46
2022/07/25 08:41:21;;;;;;;6.78;5.53;;;27.10;99.90;;;;;;5133624;27;20167;-47
2022/07/25 08:43:49;;;;;;;10.55;5.93;;;27.10;99.90;;;;;;5133640;27;20160;-46
2022/07/25 08:46:15;;;;;;;5.45;5.05;;;27.00;99.90;;;;;;5133418;27;20534;-47
2022/07/25 08:48:41;;;;;;;8.27;5.68;;;26.90;99.90;;;;;;5133372;27;20172;-46
2022/07/25 08:51:08;;;;;;;10.45;6.00;;;26.80;99.90;;;;;;5133390;27;20175;-46
2022/07/25 08:53:35;;;;;;;8.77;5.95;;;26.70;99.90;;;;;;5133197;27;20199;-49
2022/07/25 08:56:04;;;;;;;6.78;5.93;;;26.80;99.90;;;;;;5133343;27;20167;-46
2022/07/25 08:58:29;;;;;;;9.40;5.57;;;27.00;99.90;;;;;;5132007;27;20159;-46
2022/07/25 09:00:57;;;;;;;9.75;5.45;;;27.10;99.90;;;;;;5133618;27;20160;-47
2022/07/25 09:03:22;;;;;;;7.38;6.35;;;27.30;99.90;;;;;;5133502;27;20163;-50
2022/07/25 09:05:48;;;;;;;7.43;5.18;;;27.60;99.90;;;;;;5133102;27;20713;-51
2022/07/25 09:08:16;;;;;;;8.85;5.95;;;27.60;99.90;;;;;;5133040;27;20162;-50
2022/07/25 09:10:52;;;;;;;5.97;5.20;;;27.80;99.90;;;;;;5132741;27;20604;-49
2022/07/25 09:13:20;;;;;;;6.38;5.22;;;28.10;99.90;;;;;;5132834;27;20708;-47
2022/07/25 09:15:48;;;;;;;6.78;5.45;;;29.40;99.90;;;;;;5132823;27;20172;-50
2022/07/25 09:18:15;;;;;;;6.22;5.50;;;28.10;99.90;;;;;;5132908;27;20189;-48
2022/07/25 09:20:50;;;;;;;6.40;5.65;;;28.20;99.90;;;;;;5132741;27;20172;-49
2022/07/25 09:23:36;;;;;;;6.10;5.40;;;28.30;99.90;;;;;;5133034;27;20492;-50
2022/07/25 09:26:08;;;;;;;8.65;5.95;;;28.40;99.90;;;;;;5132699;27;20171;-50
2022/07/25 09:28:48;;;;;;;8.77;5.82;;;28.30;99.90;;;;;;5132610;27;20170;-51
2022/07/25 09:31:17;;;;;;;6.45;5.72;;;28.20;99.90;;;;;;5132523;27;20174;-46
2022/07/25 09:33:51;;;;;;;7.25;5.40;;;27.90;99.90;;;;;;5132411;27;20286;-47
2022/07/25 09:36:17;;;;;;;5.97;5.45;;;27.90;99.90;;;;;;5132667;27;20250;-51
2022/07/25 09:38:59;;;;;;;7.05;5.45;;;27.50;99.90;;;;;;5132439;27;20254;-51
2022/07/25 09:41:40;;;;;;;6.55;5.82;;;27.50;99.90;;;;;;5132636;27;20168;-48
2022/07/25 09:44:18;;;;;;;6.63;5.88;;;27.60;99.90;;;;;;5132375;27;20168;-49
2022/07/25 09:46:44;;;;;;;6.93;5.20;;;27.40;99.90;;;;;;5132313;27;20163;-51
2022/07/25 09:49:13;;;;;;;18.92;6.43;;;27.20;99.90;;;;;;5132309;27;20650;-50
2022/07/25 09:51:40;;;;;;;6.28;5.63;;;27.00;99.90;;;;;;5131846;27;20170;-51
2022/07/25 09:54:05;;;;;;;6.03;5.13;;;26.80;99.90;;;;;;5132329;27;20206;-51
2022/07/25 09:56:32;;;;;;;7.93;4.80;;;26.50;99.90;;;;;;5131929;27;20694;-51
2022/07/25 09:58:57;;;;;;;6.25;5.15;;;26.40;99.90;;;;;;5131733;27;20175;-49
2022/07/25 10:01:32;;;;;;;5.63;5.05;;;26.20;99.90;;;;;;5132396;27;20190;-50
2022/07/25 10:04:17;;;;;;;8.77;5.30;;;26.10;99.90;;;;;;5131985;27;20197;-50
2022/07/25 10:07:00;;;;;;;8.10;5.18;;;26.00;99.90;;;;;;5131981;27;20627;-50
2022/07/25 10:09:26;;;;;;;7.15;5.35;;;25.90;99.90;;;;;;5132278;27;20622;-51
2022/07/25 10:12:10;;;;;;;6.05;5.07;;;25.60;99.90;;;;;;5131356;27;20219;-52
2022/07/25 10:14:36;;;;;;;6.05;5.43;;;25.70;99.90;;;;;;5131859;27;20179;-51
2022/07/25 10:17:02;;;;;;;8.25;5.40;;;25.60;99.90;;;;;;5131604;27;20172;-52
2022/07/25 10:19:45;;;;;;;10.18;5.35;;;25.50;99.90;;;;;;5132032;27;20275;-51
2022/07/25 10:22:11;;;;;;;8.02;6.15;;;25.70;99.90;;;;;;5131774;27;20164;-49
2022/07/25 10:24:38;;;;;;;18.08;6.22;;;25.80;99.90;;;;;;5131779;27;20167;-51
2022/07/25 10:27:19;;;;;;;9.98;5.53;;;25.80;99.90;;;;;;5131740;27;20250;-49
2022/07/25 10:29:51;;;;;;;11.30;5.68;;;26.00;99.90;;;;;;5131646;27;20194;-48
2022/07/25 10:32:17;;;;;;;11.10;4.88;;;26.20;99.90;;;;;;5131210;27;20252;-49
2022/07/25 10:34:51;;;;;;;8.55;4.38;;;26.20;99.90;;;;;;5131576;27;20175;-48
2022/07/25 10:37:17;;;;;;;5.70;4.45;;;26.50;99.90;;;;;;5131399;27;20155;-49
2022/07/25 10:39:44;;;;;;;7.75;3.35;;;27.00;99.90;;;;;;5131800;27;20175;-49
2022/07/25 10:42:15;;;;;;;4.55;4.15;;;27.40;99.90;;;;;;5131163;27;20251;-50
2022/07/25 10:44:42;;;;;;;4.57;3.45;;;27.70;99.90;;;;;;5131376;27;20182;-48
2022/07/25 10:47:10;;;;;;;6.30;3.60;;;27.40;99.90;;;;;;5131457;27;20170;-50
2022/07/25 10:49:40;;;;;;;4.65;3.42;;;27.60;99.90;;;;;;5131238;27;20167;-49
2022/07/25 10:52:06;;;;;;;5.53;3.58;;;27.70;99.90;;;;;;5131634;27;20270;-51
2022/07/25 10:54:36;;;;;;;3.55;3.13;;;27.50;99.90;;;;;;5131390;27;20176;-49
2022/07/25 10:57:04;;;;;;;4.70;3.83;;;27.50;99.90;;;;;;5131408;27;20193;-46
2022/07/25 10:59:34;;;;;;;4.55;3.58;;;27.50;99.90;;;;;;5131362;27;20698;-48
2022/07/25 11:02:01;;;;;;;4.13;3.28;;;27.20;99.90;;;;;;5131554;27;20219;-47
2022/07/25 11:04:27;;;;;;;7.93;3.72;;;27.40;99.90;;;;;;5131534;27;20183;-48
2022/07/25 11:06:53;;;;;;;5.30;3.25;;;27.40;99.90;;;;;;5131413;27;20160;-50
2022/07/25 11:09:24;;;;;;;7.10;3.60;;;27.20;99.90;;;;;;5131291;27;20167;-49
2022/07/25 11:11:52;;;;;;;5.55;3.30;;;27.30;99.90;;;;;;5131178;27;20290;-47
2022/07/25 11:14:19;;;;;;;4.13;3.20;;;27.40;99.90;;;;;;5131369;27;20245;-50
2022/07/25 11:16:47;;;;;;;4.45;3.50;;;27.70;99.90;;;;;;5131253;27;20223;-46
2022/07/25 11:19:26;;;;;;;3.72;3.08;;;27.80;99.90;;;;;;5131019;27;20168;-49
2022/07/25 11:21:57;;;;;;;4.43;3.45;;;27.80;99.90;;;;;;5132469;27;20156;-48
2022/07/25 11:24:43;;;;;;;5.47;3.80;;;27.80;99.90;;;;;;5135391;27;20172;-47
2022/07/25 11:27:11;;;;;;;4.78;3.33;;;27.80;99.90;;;;;;5135004;27;20277;-48
2022/07/25 11:29:38;;;;;;;6.15;3.63;;;28.00;99.90;;;;;;5134900;27;20520;-49
2022/07/25 11:32:09;;;;;;;4.00;3.60;;;27.90;99.90;;;;;;5134587;27;20171;-51
2022/07/25 11:34:46;;;;;;;6.47;3.35;;;28.10;99.90;;;;;;5134933;27;20175;-47
2022/07/25 11:37:13;;;;;;;3.90;3.50;;;28.00;99.90;;;;;;5134910;27;20167;-48
2022/07/25 11:39:41;;;;;;;5.93;3.58;;;28.00;99.90;;;;;;5134786;27;20164;-49
2022/07/25 11:42:18;;;;;;;7.28;3.55;;;28.30;99.90;;;;;;5134808;27;20643;-50
2022/07/25 11:44:49;;;;;;;4.20;3.40;;;28.30;99.90;;;;;;5134620;27;20175;-49
2022/07/25 11:47:32;;;;;;;6.15;3.58;;;28.30;99.90;;;;;;5134661;27;20631;-47
2022/07/25 11:50:00;;;;;;;6.15;3.60;;;28.40;99.90;;;;;;5134317;27;20626;-47
2022/07/25 11:52:35;;;;;;;6.15;3.50;;;28.40;99.90;;;;;;5135109;27;20228;-47
2022/07/25 11:55:15;;;;;;;6.28;3.40;;;28.20;99.90;;;;;;5134474;27;20171;-46
2022/07/25 11:57:43;;;;;;;8.15;3.60;;;28.40;99.90;;;;;;5116209;27;20257;-49
2022/07/25 12:00:14;;;;;;;5.93;3.53;;;28.50;99.90;;;;;;5134844;27;20179;-47
2022/07/25 12:02:40;;;;;;;5.97;3.30;;;28.40;99.90;;;;;;5134278;27;20752;-48
2022/07/25 12:05:08;;;;;;;9.88;3.55;;;28.50;99.90;;;;;;5134286;27;20168;-52
2022/07/25 12:07:35;;;;;;;5.25;3.45;;;28.50;99.90;;;;;;5134510;27;20171;-57
2022/07/25 12:10:01;;;;;;;7.78;3.20;;;29.00;99.90;;;;;;5134323;27;20506;-52
2022/07/25 12:12:27;;;;;;;4.75;3.15;;;29.40;99.90;;;;;;5133966;27;20259;-45
2022/07/25 12:14:52;;;;;;;4.95;3.10;;;29.40;99.90;;;;;;5134519;27;20174;-48
2022/07/25 12:17:18;;;;;;;5.35;2.95;;;29.50;99.90;;;;;;5133877;27;20170;-47
2022/07/25 12:19:46;;;;;;;8.73;3.30;;;29.80;99.90;;;;;;5133827;27;20168;-48
2022/07/25 12:22:12;;;;;;;5.32;2.72;;;29.90;99.90;;;;;;5133758;27;20167;-48
2022/07/25 12:24:38;;;;;;;5.70;3.00;;;29.70;99.90;;;;;;5133837;27;20219;-49
2022/07/25 12:27:03;;;;;;;5.43;3.47;;;29.80;99.90;;;;;;5133904;27;20160;-48
2022/07/25 12:29:29;;;;;;;5.85;3.53;;;29.70;99.90;;;;;;5133719;27;20167;-49
2022/07/25 12:31:54;;;;;;;5.32;3.05;;;29.70;99.90;;;;;;5133392;27;20246;-49
2022/07/25 12:34:20;;;;;;;6.55;3.17;;;29.70;99.90;;;;;;5132725;27;20195;-44
2022/07/25 12:36:45;;;;;;;7.43;3.00;;;30.00;99.90;;;;;;5132794;27;20171;-43
2022/07/25 12:39:11;;;;;;;4.35;2.80;;;30.30;99.90;;;;;;5133383;27;20654;-45
2022/07/25 12:41:38;;;;;;;7.07;2.92;;;30.40;99.90;;;;;;5133455;27;20163;-45
2022/07/25 12:44:04;;;;;;;7.88;3.00;;;30.00;99.90;;;;;;5133636;27;20248;-55
2022/07/25 12:46:30;;;;;;;4.78;2.75;;;29.90;99.90;;;;;;5133722;27;20862;-56